Time;durP1;ratioP1;P1;durP2;ratioP2;P2;SDS_P1;SDS_P2;PMS_P1;PMS_P2;Temp;Humidity;BMP_temperature;BMP_pressure;BME280_temperature;BME280_humidity;BME280_pressure;Samples;Min_cycle;Max_cycle;Signal;HPM_P1;HPM_P2
2022/05/03 00:00:10;;;;;;;;;;;;;;;7.14;100.00;101974.72;2612349;36;19950;-48
2022/05/03 00:02:44;;;;;;;;;;;;;;;7.07;100.00;101972.47;2614291;36;20477;-53
2022/05/03 00:05:18;;;;;;;;;;;;;;;7.04;100.00;101965.47;2612718;31;20062;-48
2022/05/03 00:07:49;;;;;;;;;;;;;;;7.03;100.00;101968.25;2612333;36;20034;-53
2022/05/03 00:10:20;;;;;;;;;;;;;;;6.99;100.00;101962.19;2612236;36;20049;-48
2022/05/03 00:12:50;;;;;;;;;;;;;;;6.95;100.00;101955.25;2613071;36;20073;-47
2022/05/03 00:15:19;;;;;;;;;;;;;;;6.89;100.00;101961.84;2612523;36;20069;-48
2022/05/03 00:17:47;;;;;;;;;;;;;;;6.82;100.00;101963.13;2613510;36;20129;-48
2022/05/03 00:20:19;;;;;;;;;;;;;;;6.79;100.00;101960.63;2612343;36;20030;-50
2022/05/03 00:22:48;;;;;;;;;;;;;;;6.74;100.00;101955.50;2613278;36;20477;-48
2022/05/03 00:25:17;;;;;;;;;;;;;;;6.68;100.00;101963.03;2606300;36;20497;-48
2022/05/03 00:27:45;;;;;;;;;;;;;;;6.61;100.00;101960.69;2612891;36;20067;-48
2022/05/03 00:30:14;;;;;;;;;;;;;;;6.60;100.00;101961.63;2606463;36;19972;-49
2022/05/03 00:32:42;;;;;;;;;;;;;;;6.57;100.00;101964.47;2612766;36;20073;-50
2022/05/03 00:35:11;;;;;;;;;;;;;;;6.58;100.00;101966.19;2612633;36;19946;-50
2022/05/03 00:37:42;;;;;;;;;;;;;;;6.56;100.00;101962.72;2612998;36;20250;-51
2022/05/03 00:40:12;;;;;;;;;;;;;;;6.52;100.00;101965.66;2612848;31;19950;-48
2022/05/03 00:42:46;;;;;;;;;;;;;;;6.47;100.00;101963.22;2613487;31;19950;-50
2022/05/03 00:45:17;;;;;;;;;;;;;;;6.44;100.00;101966.94;2612646;31;20040;-50
2022/05/03 00:47:48;;;;;;;;;;;;;;;6.42;100.00;101962.59;2612933;36;20097;-50
2022/05/03 00:50:22;;;;;;;;;;;;;;;6.34;100.00;101960.34;2613408;36;20008;-49
2022/05/03 00:52:57;;;;;;;;;;;;;;;6.36;100.00;101960.25;2613793;36;20453;-49
2022/05/03 00:55:33;;;;;;;;;;;;;;;6.26;100.00;101954.56;2613614;36;20434;-48
2022/05/03 00:58:07;;;;;;;;;;;;;;;6.32;100.00;101960.41;2613704;36;20074;-50
2022/05/03 01:00:36;;;;;;;;;;;;;;;6.50;100.00;101965.75;2613295;36;19950;-49
2022/05/03 01:03:09;;;;;;;;;;;;;;;6.41;100.00;101947.53;2613541;36;20779;-50
2022/05/03 01:05:43;;;;;;;;;;;;;;;6.37;100.00;101948.63;2613562;36;19969;-49
2022/05/03 01:08:14;;;;;;;;;;;;;;;6.29;100.00;101957.06;2612925;36;20077;-47
2022/05/03 01:10:48;;;;;;;;;;;;;;;6.25;100.00;101950.16;2613351;36;19958;-50
2022/05/03 01:13:22;;;;;;;;;;;;;;;6.15;100.00;101947.06;2613673;31;19953;-50
2022/05/03 01:15:54;;;;;;;;;;;;;;;6.09;100.00;101942.06;2613223;36;20037;-47
2022/05/03 01:18:27;;;;;;;;;;;;;;;5.97;100.00;101941.75;2612941;31;20053;-47
2022/05/03 01:21:04;;;;;;;;;;;;;;;5.91;100.00;101942.03;2613304;36;20037;-50
2022/05/03 01:23:44;;;;;;;;;;;;;;;5.87;100.00;101934.25;2614297;31;20481;-47
2022/05/03 01:26:27;;;;;;;;;;;;;;;5.93;100.00;101940.16;2613271;36;19984;-50
2022/05/03 01:29:11;;;;;;;;;;;;;;;5.83;100.00;101933.56;2607227;36;19958;-47
2022/05/03 01:31:39;;;;;;;;;;;;;;;5.86;100.00;101938.75;2613688;36;20034;-49
2022/05/03 01:34:10;;;;;;;;;;;;;;;5.92;100.00;101942.91;2613037;31;20438;-47
2022/05/03 01:36:42;;;;;;;;;;;;;;;5.81;100.00;101945.28;2604076;36;19962;-52
2022/05/03 01:39:17;;;;;;;;;;;;;;;5.74;100.00;101942.03;2612249;36;20034;-51
2022/05/03 01:41:53;;;;;;;;;;;;;;;5.57;100.00;101943.75;2612529;36;19982;-49
2022/05/03 01:44:29;;;;;;;;;;;;;;;5.48;100.00;101943.34;2612861;36;20035;-49
2022/05/03 01:47:00;;;;;;;;;;;;;;;5.49;100.00;101939.75;2613402;36;20518;-48
2022/05/03 01:52:22;;;;;;;;;;;;;;;5.58;100.00;101940.16;2613144;31;20033;-48
2022/05/03 01:55:11;;;;;;;;;;;;;;;5.54;100.00;101943.06;2613332;36;20026;-50
2022/05/03 01:57:48;;;;;;;;;;;;;;;5.52;100.00;101940.47;2613822;36;20335;-47
2022/05/03 02:00:19;;;;;;;;;;;;;;;5.49;100.00;101940.63;2612529;36;19947;-51
2022/05/03 02:02:54;;;;;;;;;;;;;;;5.40;100.00;101946.41;2612568;36;20030;-49
2022/05/03 02:05:37;;;;;;;;;;;;;;;5.32;100.00;101948.59;2612777;36;19951;-49
2022/05/03 02:08:06;;;;;;;;;;;;;;;5.31;100.00;101955.72;2611517;36;20112;-50
2022/05/03 02:10:52;;;;;;;;;;;;;;;5.22;100.00;101954.38;2612970;31;20093;-48
2022/05/03 02:16:30;;;;;;;;;;;;;;;5.09;100.00;101948.78;2612365;36;20597;-45
2022/05/03 02:19:08;;;;;;;;;;;;;;;5.10;100.00;101949.63;2613224;36;20359;-52
2022/05/03 02:21:43;;;;;;;;;;;;;;;5.13;100.00;101946.81;2612807;36;19946;-47
2022/05/03 02:24:16;;;;;;;;;;;;;;;5.15;100.00;101941.41;2612038;31;19984;-50
2022/05/03 02:26:46;;;;;;;;;;;;;;;5.13;100.00;101940.63;2611188;36;19977;-49
2022/05/03 02:29:16;;;;;;;;;;;;;;;5.13;100.00;101949.47;2611831;36;20001;-49
2022/05/03 02:31:49;;;;;;;;;;;;;;;5.13;100.00;101943.28;2613162;36;19981;-48
2022/05/03 02:34:21;;;;;;;;;;;;;;;5.03;100.00;101937.53;2612632;36;19953;-49
2022/05/03 02:36:54;;;;;;;;;;;;;;;5.00;100.00;101943.00;2605620;36;20054;-48
2022/05/03 02:39:23;;;;;;;;;;;;;;;4.96;100.00;101941.41;2612521;36;19954;-48
2022/05/03 02:41:53;;;;;;;;;;;;;;;4.95;100.00;101942.34;2612151;36;19952;-53
2022/05/03 02:44:21;;;;;;;;;;;;;;;5.00;100.00;101937.66;2612396;36;20629;-47
2022/05/03 02:46:59;;;;;;;;;;;;;;;5.02;100.00;101939.34;2606588;36;19954;-49
2022/05/03 02:49:33;;;;;;;;;;;;;;;4.98;100.00;101944.91;2613165;36;20953;-48
2022/05/03 02:52:11;;;;;;;;;;;;;;;4.93;100.00;101936.22;2613209;36;20034;-48
2022/05/03 02:54:41;;;;;;;;;;;;;;;4.93;100.00;101936.22;2613071;36;19950;-47
2022/05/03 02:57:15;;;;;;;;;;;;;;;4.93;100.00;101933.56;2613721;36;20510;-48
2022/05/03 03:02:31;;;;;;;;;;;;;;;4.86;100.00;101935.69;2612898;36;20061;-48
2022/05/03 03:05:06;;;;;;;;;;;;;;;4.76;100.00;101937.03;2613059;36;20086;-48
2022/05/03 03:07:38;;;;;;;;;;;;;;;4.85;100.00;101932.13;2613447;36;20354;-50
2022/05/03 03:10:12;;;;;;;;;;;;;;;4.86;100.00;101933.00;2612795;36;20059;-48
2022/05/03 03:12:43;;;;;;;;;;;;;;;4.81;100.00;101927.00;2613377;36;19972;-51
2022/05/03 03:15:12;;;;;;;;;;;;;;;4.79;100.00;101919.09;2612863;31;19946;-50
2022/05/03 03:17:44;;;;;;;;;;;;;;;4.74;100.00;101926.41;2612129;36;20489;-48
2022/05/03 03:20:13;;;;;;;;;;;;;;;4.70;100.00;101924.84;2611834;36;19950;-49
2022/05/03 03:22:41;;;;;;;;;;;;;;;4.71;100.00;101929.22;2612421;36;20355;-48
2022/05/03 03:25:10;;;;;;;;;;;;;;;4.71;100.00;101932.78;2612052;36;20030;-48
2022/05/03 03:27:40;;;;;;;;;;;;;;;4.61;100.00;101926.16;2612706;36;20026;-47
2022/05/03 03:30:09;;;;;;;;;;;;;;;4.62;100.00;101933.19;2612265;32;20097;-47
2022/05/03 03:32:38;;;;;;;;;;;;;;;4.65;100.00;101927.75;2611967;36;20485;-48
2022/05/03 03:35:09;;;;;;;;;;;;;;;4.61;100.00;101933.25;2612819;31;20025;-47
2022/05/03 03:37:38;;;;;;;;;;;;;;;4.53;100.00;101934.50;2612504;36;20530;-50
2022/05/03 03:40:07;;;;;;;;;;;;;;;4.63;100.00;101936.75;2612437;31;19978;-47
2022/05/03 03:42:36;;;;;;;;;;;;;;;4.52;100.00;101932.78;2612610;36;19946;-48
2022/05/03 03:45:07;;;;;;;;;;;;;;;4.47;100.00;101936.56;2606046;36;20070;-48
2022/05/03 03:47:35;;;;;;;;;;;;;;;4.38;100.00;101932.53;2606070;36;19958;-47
2022/05/03 03:50:03;;;;;;;;;;;;;;;4.33;100.00;101935.41;2612526;36;20042;-47
2022/05/03 03:52:34;;;;;;;;;;;;;;;4.31;100.00;101933.72;2612904;36;20055;-47
2022/05/03 03:55:03;;;;;;;;;;;;;;;4.34;100.00;101938.91;2612948;36;20039;-48
2022/05/03 03:57:31;;;;;;;;;;;;;;;4.30;100.00;101932.00;2612447;36;20443;-47
2022/05/03 04:00:00;;;;;;;;;;;;;;;4.32;100.00;101927.47;2612662;36;20399;-49
2022/05/03 04:02:30;;;;;;;;;;;;;;;4.30;100.00;101932.00;2611963;36;20009;-51
2022/05/03 04:05:00;;;;;;;;;;;;;;;4.33;100.00;101943.41;2611754;36;19946;-53
2022/05/03 04:07:28;;;;;;;;;;;;;;;4.32;100.00;101940.81;2611687;36;20037;-53
2022/05/03 04:09:59;;;;;;;;;;;;;;;4.30;100.00;101937.31;2612939;36;20042;-48
2022/05/03 04:12:29;;;;;;;;;;;;;;;4.33;100.00;101937.22;2612327;36;20033;-49
2022/05/03 04:14:57;;;;;;;;;;;;;;;4.33;100.00;101931.88;2612798;36;20376;-49
2022/05/03 04:17:25;;;;;;;;;;;;;;;4.28;100.00;101932.06;2612779;36;20061;-51
2022/05/03 04:19:53;;;;;;;;;;;;;;;4.30;100.00;101924.88;2612069;36;20117;-48
2022/05/03 04:22:25;;;;;;;;;;;;;;;4.39;100.00;101936.94;2612637;36;19950;-50
2022/05/03 04:24:53;;;;;;;;;;;;;;;4.49;100.00;101945.34;2613289;36;19958;-49
2022/05/03 04:27:24;;;;;;;;;;;;;;;4.51;100.00;101940.84;2613149;36;20030;-50
2022/05/03 04:29:53;;;;;;;;;;;;;;;4.60;100.00;101942.22;2613114;36;19970;-53
2022/05/03 04:32:22;;;;;;;;;;;;;;;4.70;100.00;101941.72;2613018;36;19950;-48
2022/05/03 04:34:50;;;;;;;;;;;;;;;4.69;100.00;101931.13;2612923;36;20511;-51
2022/05/03 04:37:18;;;;;;;;;;;;;;;4.71;100.00;101932.78;2613121;36;19970;-50
2022/05/03 04:39:46;;;;;;;;;;;;;;;4.71;100.00;101932.78;2612949;36;20491;-52
2022/05/03 04:42:14;;;;;;;;;;;;;;;4.75;100.00;101928.16;2613158;36;20050;-51
2022/05/03 04:44:45;;;;;;;;;;;;;;;4.79;100.00;101936.91;2612988;36;20000;-49
2022/05/03 04:47:13;;;;;;;;;;;;;;;4.74;100.00;101937.09;2606370;36;20046;-53
2022/05/03 04:49:41;;;;;;;;;;;;;;;4.86;100.00;101941.88;2613145;36;20072;-49
2022/05/03 04:52:10;;;;;;;;;;;;;;;4.96;100.00;101936.09;2606083;36;19954;-51
2022/05/03 04:54:38;;;;;;;;;;;;;;;4.95;100.00;101942.34;2613554;36;20442;-52
2022/05/03 04:57:07;;;;;;;;;;;;;;;5.08;100.00;101946.19;2612492;36;19953;-49
2022/05/03 04:59:35;;;;;;;;;;;;;;;4.96;100.00;101941.41;2613233;31;20506;-48
2022/05/03 05:02:06;;;;;;;;;;;;;;;5.13;100.00;101946.81;2612729;36;20030;-51
2022/05/03 05:04:34;;;;;;;;;;;;;;;5.18;100.00;101952.81;2613334;36;20049;-52
2022/05/03 05:07:02;;;;;;;;;;;;;;;5.25;100.00;101951.53;2612170;36;19954;-51
2022/05/03 05:09:30;;;;;;;;;;;;;;;5.33;100.00;101944.97;2613059;31;20025;-49
2022/05/03 05:11:58;;;;;;;;;;;;;;;5.47;100.00;101946.97;2612941;36;20046;-47
2022/05/03 05:14:26;;;;;;;;;;;;;;;5.58;100.00;101950.84;2613229;36;20117;-50
2022/05/03 05:16:54;;;;;;;;;;;;;;;5.71;100.00;101955.56;2613173;31;20528;-49
2022/05/03 05:19:24;;;;;;;;;;;;;;;5.96;100.00;101956.03;2612736;36;19965;-47
2022/05/03 05:21:52;;;;;;;;;;;;;;;6.13;100.00;101957.84;2613490;31;20025;-49
2022/05/03 05:24:20;;;;;;;;;;;;;;;6.35;100.00;101955.88;2613067;36;20515;-47
2022/05/03 05:26:48;;;;;;;;;;;;;;;6.33;100.00;101958.63;2614032;36;20438;-47
2022/05/03 05:29:16;;;;;;;;;;;;;;;6.50;100.00;101955.03;2613450;36;20125;-50
2022/05/03 05:31:44;;;;;;;;;;;;;;;6.71;100.00;101952.16;2613429;36;20026;-52
2022/05/03 05:34:12;;;;;;;;;;;;;;;6.90;100.00;101958.19;2611872;31;19951;-50
2022/05/03 05:36:43;;;;;;;;;;;;;;;7.05;100.00;101958.31;2612645;36;20025;-50
2022/05/03 05:39:11;;;;;;;;;;;;;;;7.18;100.00;101959.34;2612809;36;19985;-46
2022/05/03 05:41:40;;;;;;;;;;;;;;;7.42;100.00;101950.84;2612923;31;20061;-49
2022/05/03 05:44:08;;;;;;;;;;;;;;;7.49;100.00;101949.53;2612589;36;19946;-52
2022/05/03 05:46:36;;;;;;;;;;;;;;;7.72;100.00;101954.41;2613772;36;20082;-50
2022/05/03 05:49:04;;;;;;;;;;;;;;;8.03;100.00;101947.22;2613495;36;20078;-54
2022/05/03 05:51:32;;;;;;;;;;;;;;;8.44;100.00;101960.88;2607100;36;19973;-49
2022/05/03 05:54:00;;;;;;;;;;;;;;;8.92;100.00;101956.06;2612407;36;20069;-53
2022/05/03 05:56:29;;;;;;;;;;;;;;;9.40;100.00;101953.84;2612804;36;19951;-50
2022/05/03 05:58:57;;;;;;;;;;;;;;;9.75;100.00;101947.94;2613180;36;20444;-50
2022/05/03 06:01:28;;;;;;;;;;;;;;;9.80;100.00;101945.81;2604579;36;20054;-51
2022/05/03 06:03:56;;;;;;;;;;;;;;;10.06;100.00;101945.84;2612614;36;19954;-52
2022/05/03 06:06:24;;;;;;;;;;;;;;;10.33;100.00;101937.72;2612925;36;19954;-51
2022/05/03 06:08:52;;;;;;;;;;;;;;;10.31;100.00;101941.44;2612600;36;19947;-54
2022/05/03 06:11:22;;;;;;;;;;;;;;;10.73;100.00;101939.38;2611577;36;20041;-49
2022/05/03 06:13:50;;;;;;;;;;;;;;;11.16;100.00;101941.66;2611808;36;20037;-51
2022/05/03 06:16:19;;;;;;;;;;;;;;;11.13;100.00;101938.31;2611915;36;20049;-53
2022/05/03 06:18:47;;;;;;;;;;;;;;;11.21;100.00;101938.59;2612564;36;20424;-52
2022/05/03 06:21:15;;;;;;;;;;;;;;;11.38;100.00;101942.72;2610345;36;19988;-50
2022/05/03 06:23:43;;;;;;;;;;;;;;;11.32;100.00;101940.50;2611859;36;19947;-49
2022/05/03 06:26:11;;;;;;;;;;;;;;;11.37;100.00;101936.47;2612545;36;19952;-51
2022/05/03 06:28:42;;;;;;;;;;;;;;;11.54;100.00;101934.34;2613516;36;20058;-49
2022/05/03 06:31:10;;;;;;;;;;;;;;;11.45;100.00;101941.28;2613188;36;19957;-50
2022/05/03 06:33:38;;;;;;;;;;;;;;;11.51;100.00;101935.47;2611131;36;19990;-50
2022/05/03 06:36:07;;;;;;;;;;;;;;;11.75;100.00;101929.19;2612957;36;20029;-57
2022/05/03 06:38:34;;;;;;;;;;;;;;;12.13;100.00;101925.38;2612677;36;20054;-49
2022/05/03 06:41:02;;;;;;;;;;;;;;;12.07;100.00;101929.41;2613010;36;20038;-56
2022/05/03 06:43:30;;;;;;;;;;;;;;;11.78;100.00;101934.34;2612871;36;19986;-54
2022/05/03 06:46:01;;;;;;;;;;;;;;;11.88;100.00;101935.34;2608718;36;20535;-51
2022/05/03 06:48:29;;;;;;;;;;;;;;;11.96;100.00;101933.94;2612704;36;19950;-53
2022/05/03 06:50:57;;;;;;;;;;;;;;;11.55;100.00;101946.88;2612933;36;20524;-52
2022/05/03 06:53:25;;;;;;;;;;;;;;;11.83;100.00;101950.16;2611842;36;19955;-51
2022/05/03 06:55:53;;;;;;;;;;;;;;;12.16;100.00;101944.03;2612619;36;20089;-49
2022/05/03 06:58:21;;;;;;;;;;;;;;;12.58;100.00;101947.00;2612243;36;20073;-49
2022/05/03 07:00:49;;;;;;;;;;;;;;;12.49;100.00;101952.28;2607464;36;20374;-50
2022/05/03 07:03:20;;;;;;;;;;;;;;;12.66;100.00;101954.50;2607315;36;20455;-50
2022/05/03 07:05:48;;;;;;;;;;;;;;;12.58;100.00;101952.41;2611683;36;20597;-50
2022/05/03 07:08:16;;;;;;;;;;;;;;;12.79;100.00;101957.06;2611605;31;19969;-53
2022/05/03 07:10:44;;;;;;;;;;;;;;;12.95;100.00;101962.94;2611507;36;19951;-55
2022/05/03 07:13:15;;;;;;;;;;;;;;;12.34;100.00;101959.78;2613011;36;20042;-48
2022/05/03 07:15:43;;;;;;;;;;;;;;;12.39;100.00;101963.78;2613089;36;19950;-53
2022/05/03 07:23:35;;;;;;;;;;;;;;;12.67;100.00;101967.00;2611777;36;19973;-52
2022/05/03 07:26:03;;;;;;;;;;;;;;;12.50;100.00;101965.66;2611375;36;20080;-51
2022/05/03 07:28:31;;;;;;;;;;;;;;;12.66;100.00;101969.84;2613015;36;19946;-53
2022/05/03 07:30:59;;;;;;;;;;;;;;;12.57;100.00;101966.91;2612964;36;20069;-49
2022/05/03 07:33:27;;;;;;;;;;;;;;;12.90;100.00;101973.28;2612329;36;20085;-55
2022/05/03 07:35:58;;;;;;;;;;;;;;;13.08;100.00;101975.47;2611764;36;20041;-51
2022/05/03 07:38:26;;;;;;;;;;;;;;;13.28;100.00;101972.00;2612531;36;20053;-55
2022/05/03 07:40:54;;;;;;;;;;;;;;;13.00;100.00;101976.09;2613014;36;20488;-55
2022/05/03 07:43:22;;;;;;;;;;;;;;;12.73;100.00;101974.63;2611902;36;19973;-54
2022/05/03 07:45:50;;;;;;;;;;;;;;;12.84;100.00;101979.19;2612369;36;20074;-51
2022/05/03 07:48:18;;;;;;;;;;;;;;;13.11;100.00;101970.66;2611913;36;19950;-51
2022/05/03 07:50:46;;;;;;;;;;;;;;;13.53;100.00;101970.00;2611523;36;20061;-50
2022/05/03 07:53:17;;;;;;;;;;;;;;;13.55;100.00;101970.72;2611543;36;19992;-51
2022/05/03 07:55:46;;;;;;;;;;;;;;;13.58;100.00;101973.16;2612669;36;19947;-50
2022/05/03 07:58:14;;;;;;;;;;;;;;;13.77;100.00;101971.63;2613624;31;20029;-50
2022/05/03 08:00:42;;;;;;;;;;;;;;;13.89;100.00;101965.16;2613432;31;19946;-50
2022/05/03 08:03:10;;;;;;;;;;;;;;;13.72;100.00;101966.59;2607135;36;20046;-49
2022/05/03 08:05:39;;;;;;;;;;;;;;;14.15;100.00;101960.22;2613093;36;19966;-49
2022/05/03 08:08:07;;;;;;;;;;;;;;;13.95;100.00;101961.91;2613033;36;19973;-49
2022/05/03 08:10:37;;;;;;;;;;;;;;;14.85;100.00;101962.28;2612071;36;19973;-51
2022/05/03 08:13:06;;;;;;;;;;;;;;;15.46;100.00;101971.28;2607595;36;20065;-49
2022/05/03 08:15:34;;;;;;;;;;;;;;;15.24;100.00;101971.41;2613494;36;20045;-51
2022/05/03 08:18:02;;;;;;;;;;;;;;;15.59;100.00;101971.88;2613666;36;20034;-51
2022/05/03 08:20:30;;;;;;;;;;;;;;;15.14;100.00;101975.09;2613196;36;19966;-50
2022/05/03 08:22:59;;;;;;;;;;;;;;;15.24;100.00;101973.28;2613742;36;20034;-49
2022/05/03 08:25:27;;;;;;;;;;;;;;;15.64;100.00;101976.91;2612258;31;19946;-52
2022/05/03 08:27:58;;;;;;;;;;;;;;;15.09;100.00;101974.66;2613462;36;20037;-51
2022/05/03 08:30:26;;;;;;;;;;;;;;;14.93;100.00;101978.75;2613554;36;20325;-54
2022/05/03 08:32:54;;;;;;;;;;;;;;;15.04;100.00;101977.78;2613616;36;20459;-50
2022/05/03 08:35:24;;;;;;;;;;;;;;;14.80;100.00;101973.56;2613335;36;20535;-48
2022/05/03 08:43:16;;;;;;;;;;;;;;;14.05;100.00;101980.09;2613353;36;19951;-56
2022/05/03 08:45:45;;;;;;;;;;;;;;;14.60;100.00;101979.84;2613712;36;19950;-52
2022/05/03 08:48:15;;;;;;;;;;;;;;;14.54;100.00;101984.78;2602639;36;20800;-50
2022/05/03 08:50:43;;;;;;;;;;;;;;;15.39;100.00;101980.00;2613685;36;19946;-52
2022/05/03 08:53:11;;;;;;;;;;;;;;;15.54;100.00;101985.88;2613536;36;19950;-50
2022/05/03 08:55:42;;;;;;;;;;;;;;;15.93;100.00;101985.06;2614121;31;20442;-52
2022/05/03 08:58:09;;;;;;;;;;;;;;;16.29;100.00;101985.28;2613448;36;20038;-54
2022/05/03 09:00:42;;;;;;;;;;;;;;;15.47;100.00;101986.56;2613375;36;19951;-57
2022/05/03 09:03:12;;;;;;;;;;;;;;;15.50;100.00;101994.44;2611954;31;19950;-51
2022/05/03 09:05:40;;;;;;;;;;;;;;;15.57;100.00;101982.00;2612658;36;19957;-49
2022/05/03 09:08:11;;;;;;;;;;;;;;;15.82;100.00;101983.34;2611382;31;19947;-51
2022/05/03 09:10:42;;;;;;;;;;;;;;;16.14;100.00;101992.19;2606020;36;19982;-53
2022/05/03 09:13:18;;;;;;;;;;;;;;;15.68;100.00;101991.88;2602851;31;19962;-50
2022/05/03 09:15:50;;;;;;;;;;;;;;;15.98;100.00;101990.06;2613327;36;19962;-51
2022/05/03 09:18:22;;;;;;;;;;;;;;;15.41;100.00;101997.00;2612637;36;20041;-52
2022/05/03 09:26:12;;;;;;;;;;;;;;;14.97;100.00;101993.75;2612595;36;19946;-51
2022/05/03 09:28:48;;;;;;;;;;;;;;;14.60;100.00;101991.53;2612791;36;20073;-54
2022/05/03 09:31:28;;;;;;;;;;;;;;;14.93;100.00;101992.31;2604936;31;19951;-56
2022/05/03 09:33:56;;;;;;;;;;;;;;;14.62;100.00;101994.13;2595836;31;19946;-52
2022/05/03 09:36:25;;;;;;;;;;;;;;;14.81;100.00;101987.94;2576801;36;19953;-54
2022/05/03 09:38:56;;;;;;;;;;;;;;;15.27;100.00;101991.97;2601916;36;19981;-50
2022/05/03 09:41:24;;;;;;;;;;;;;;;15.49;100.00;101992.69;2604720;31;20419;-51
2022/05/03 09:44:08;;;;;;;;;;;;;;;15.54;100.00;101990.44;2611376;36;19968;-51
2022/05/03 09:46:51;;;;;;;;;;;;;;;16.22;100.00;101984.16;2612075;36;19974;-54
2022/05/03 09:49:22;;;;;;;;;;;;;;;15.18;100.00;101984.66;2612658;31;19969;-50
2022/05/03 09:51:51;;;;;;;;;;;;;;;15.46;100.00;101979.44;2612213;36;19957;-50
2022/05/03 09:54:19;;;;;;;;;;;;;;;15.53;100.00;101984.16;2612100;36;20459;-50
2022/05/03 09:56:49;;;;;;;;;;;;;;;16.39;100.00;101977.97;2612682;36;19950;-49
2022/05/03 09:59:17;;;;;;;;;;;;;;;17.20;100.00;101979.25;2612629;36;20466;-54
2022/05/03 10:01:45;;;;;;;;;;;;;;;16.71;100.00;101975.88;2612994;36;19950;-56
2022/05/03 10:04:14;;;;;;;;;;;;;;;16.79;100.00;101982.28;2611840;36;19962;-51
2022/05/03 10:06:45;;;;;;;;;;;;;;;16.87;100.00;101986.09;2613365;36;20340;-49
2022/05/03 10:09:13;;;;;;;;;;;;;;;16.35;100.00;101978.44;2612433;31;19950;-51
2022/05/03 10:11:46;;;;;;;;;;;;;;;16.26;100.00;101983.72;2611739;31;19946;-49
2022/05/03 10:14:14;;;;;;;;;;;;;;;16.97;100.00;101978.78;2613019;31;20070;-51
2022/05/03 10:22:08;;;;;;;;;;;;;;;16.29;100.00;101971.72;2612651;36;20474;-50
2022/05/03 10:24:51;;;;;;;;;;;;;;;16.82;100.00;101971.09;2613136;31;20070;-49
2022/05/03 10:27:19;;;;;;;;;;;;;;;17.05;100.00;101975.31;2612682;36;20045;-51
2022/05/03 10:30:07;;;;;;;;;;;;;;;17.39;100.00;101972.81;2611478;36;20574;-56
2022/05/03 10:32:37;;;;;;;;;;;;;;;17.58;100.00;101960.94;2613529;36;20474;-52
2022/05/03 10:35:06;;;;;;;;;;;;;;;16.11;100.00;101972.47;2612918;36;19974;-53
2022/05/03 10:37:56;;;;;;;;;;;;;;;16.42;100.00;101969.53;2613026;31;19947;-49
2022/05/03 10:40:31;;;;;;;;;;;;;;;16.46;100.00;101970.94;2606574;36;20350;-50
2022/05/03 10:43:10;;;;;;;;;;;;;;;16.38;100.00;101965.38;2613198;31;20464;-53
2022/05/03 10:45:51;;;;;;;;;;;;;;;16.81;100.00;101974.84;2597797;36;20523;-50
2022/05/03 10:48:33;;;;;;;;;;;;;;;16.77;100.00;101967.13;2613396;31;19954;-51
2022/05/03 10:51:02;;;;;;;;;;;;;;;17.00;100.00;101967.59;2612972;36;20475;-49
2022/05/03 10:53:32;;;;;;;;;;;;;;;17.08;100.00;101966.88;2612870;36;19965;-51
2022/05/03 10:56:12;;;;;;;;;;;;;;;17.66;100.00;101969.16;2611764;36;19954;-54
2022/05/03 10:58:41;;;;;;;;;;;;;;;17.81;100.00;101961.28;2612620;36;20360;-50
2022/05/03 11:01:10;;;;;;;;;;;;;;;17.38;100.00;101962.09;2612398;36;19950;-50
2022/05/03 11:03:41;;;;;;;;;;;;;;;17.04;100.00;101960.00;2612867;36;19954;-51
2022/05/03 11:06:25;;;;;;;;;;;;;;;16.73;100.00;101963.00;2612430;36;19972;-48
2022/05/03 11:09:11;;;;;;;;;;;;;;;16.04;100.00;101963.16;2612855;47;19961;-50
2022/05/03 11:11:52;;;;;;;;;;;;;;;15.53;100.00;101969.72;2611753;36;19951;-53
2022/05/03 11:14:35;;;;;;;;;;;;;;;15.55;100.00;101965.03;2612860;31;20259;-51
2022/05/03 11:17:08;;;;;;;;;;;;;;;14.73;100.00;101972.38;2612889;36;19950;-55
2022/05/03 11:19:40;;;;;;;;;;;;;;;14.61;100.00;101970.72;2612605;36;20097;-51
2022/05/03 11:22:11;;;;;;;;;;;;;;;14.60;100.00;101975.28;2612602;36;19957;-52
2022/05/03 11:24:43;;;;;;;;;;;;;;;14.30;100.00;101966.16;2612837;31;20042;-49
2022/05/03 11:27:12;;;;;;;;;;;;;;;14.25;100.00;101965.69;2613176;36;20320;-51
2022/05/03 11:29:42;;;;;;;;;;;;;;;14.50;100.00;101967.13;2613001;36;19985;-54
2022/05/03 11:32:11;;;;;;;;;;;;;;;14.39;100.00;101966.34;2612686;36;19968;-52
2022/05/03 11:34:42;;;;;;;;;;;;;;;14.02;100.00;101967.69;2613324;36;20447;-50
2022/05/03 11:37:10;;;;;;;;;;;;;;;14.08;100.00;101963.59;2612385;36;19998;-48
2022/05/03 11:39:40;;;;;;;;;;;;;;;13.72;100.00;101969.31;2611303;36;20061;-51
2022/05/03 11:42:11;;;;;;;;;;;;;;;13.73;100.00;101975.56;2611550;36;19954;-49
2022/05/03 11:44:43;;;;;;;;;;;;;;;13.83;100.00;101981.91;2613195;36;20483;-48
2022/05/03 11:47:11;;;;;;;;;;;;;;;13.85;100.00;101974.50;2606885;31;20439;-50
2022/05/03 11:49:42;;;;;;;;;;;;;;;13.65;100.00;101982.47;2612288;36;19963;-50
2022/05/03 11:57:34;;;;;;;;;;;;;;;13.29;100.00;101991.75;2612704;36;19951;-49
2022/05/03 12:00:02;;;;;;;;;;;;;;;13.25;100.00;101984.88;2612383;36;20416;-50
2022/05/03 12:02:32;;;;;;;;;;;;;;;13.25;100.00;101977.66;2611288;36;19985;-52
2022/05/03 12:05:16;;;;;;;;;;;;;;;13.12;100.00;101976.94;2613368;36;20488;-48
2022/05/03 12:07:44;;;;;;;;;;;;;;;13.18;100.00;101978.28;2611944;36;20011;-50
2022/05/03 12:10:18;;;;;;;;;;;;;;;13.23;100.00;101976.91;2612125;36;19962;-51
2022/05/03 12:12:46;;;;;;;;;;;;;;;13.39;100.00;101978.38;2612444;36;19951;-53
2022/05/03 12:15:18;;;;;;;;;;;;;;;13.06;100.00;101977.41;2612248;31;20423;-48
2022/05/03 12:18:02;;;;;;;;;;;;;;;13.24;100.00;101975.94;2611800;36;20042;-52
2022/05/03 12:20:42;;;;;;;;;;;;;;;13.29;100.00;101970.13;2611547;36;20046;-51
2022/05/03 12:23:12;;;;;;;;;;;;;;;13.35;100.00;101969.66;2610950;36;19954;-52
2022/05/03 12:25:40;;;;;;;;;;;;;;;13.32;100.00;101959.06;2612205;36;20728;-47
2022/05/03 12:28:08;;;;;;;;;;;;;;;13.33;100.00;101960.78;2611583;36;20419;-50
2022/05/03 12:30:37;;;;;;;;;;;;;;;13.38;100.00;101963.13;2612045;36;19981;-52
2022/05/03 12:33:06;;;;;;;;;;;;;;;13.21;100.00;101964.53;2612022;36;20073;-54
2022/05/03 12:35:37;;;;;;;;;;;;;;;13.07;100.00;101960.22;2611759;31;20069;-50
2022/05/03 12:38:13;;;;;;;;;;;;;;;12.96;100.00;101970.06;2612036;36;20630;-48
2022/05/03 12:40:45;;;;;;;;;;;;;;;13.06;100.00;101977.41;2611533;36;20001;-52
2022/05/03 12:43:18;;;;;;;;;;;;;;;12.93;100.00;101978.44;2612020;36;19958;-49
2022/05/03 12:45:57;;;;;;;;;;;;;;;12.76;100.00;101970.81;2613352;36;20078;-48
2022/05/03 12:48:25;;;;;;;;;;;;;;;12.84;100.00;101973.78;2613257;36;19957;-49
2022/05/03 12:50:56;;;;;;;;;;;;;;;12.96;100.00;101971.94;2613371;36;19951;-55
2022/05/03 12:53:28;;;;;;;;;;;;;;;13.23;100.00;101967.94;2606329;36;19969;-52
2022/05/03 12:55:56;;;;;;;;;;;;;;;12.95;100.00;101964.78;2613003;36;19977;-48
2022/05/03 12:58:22;;;;;;;;;;;;;;;13.21;100.00;101969.94;2603906;31;20478;-48
2022/05/03 13:00:50;;;;;;;;;;;;;;;13.13;100.00;101962.41;2612357;36;19950;-49
2022/05/03 13:03:18;;;;;;;;;;;;;;;12.86;100.00;101966.41;2612319;36;19985;-49
2022/05/03 13:05:46;;;;;;;;;;;;;;;12.88;100.00;101956.34;2612883;36;19958;-49
2022/05/03 13:08:17;;;;;;;;;;;;;;;13.06;100.00;101961.19;2613256;31;19953;-53
2022/05/03 13:10:46;;;;;;;;;;;;;;;13.15;100.00;101958.63;2612505;36;19950;-53
2022/05/03 13:13:14;;;;;;;;;;;;;;;13.19;100.00;101961.06;2612778;36;20438;-50
2022/05/03 13:15:42;;;;;;;;;;;;;;;12.89;100.00;101960.75;2613364;36;19989;-49
2022/05/03 13:18:10;;;;;;;;;;;;;;;12.91;100.00;101964.19;2613429;36;20037;-49
2022/05/03 13:20:40;;;;;;;;;;;;;;;12.82;100.00;101970.31;2613180;36;20435;-49
2022/05/03 13:23:08;;;;;;;;;;;;;;;12.92;100.00;101957.78;2613670;36;20532;-50